Time;durP1;ratioP1;P1;durP2;ratioP2;P2;SDS_P1;SDS_P2;PMS_P1;PMS_P2;Temp;Humidity;BMP_temperature;BMP_pressure;BME280_temperature;BME280_humidity;BME280_pressure;Samples;Min_cycle;Max_cycle;Signal;HPM_P1;HPM_P2
2022/10/05 00:00:27;;;;;;;4.13;2.90;;;11.00;80.30;;;;;;6205888;23;20163;-88
2022/10/05 00:02:53;;;;;;;3.00;2.80;;;11.00;64.70;;;;;;6205742;23;20228;-88
2022/10/05 00:05:31;;;;;;;3.80;2.92;;;11.10;42.40;;;;;;6206608;23;20158;-89
2022/10/05 00:08:16;;;;;;;5.03;2.67;;;11.10;39.20;;;;;;6206746;23;20612;-88
2022/10/05 00:10:43;;;;;;;5.28;2.75;;;11.10;37.50;;;;;;6206306;23;20157;-88
2022/10/05 00:13:23;;;;;;;4.25;2.95;;;11.00;38.20;;;;;;6206355;23;20186;-88
2022/10/05 00:15:51;;;;;;;3.17;2.60;;;11.00;52.90;;;;;;6206134;23;20609;-89
2022/10/05 00:18:21;;;;;;;5.40;3.28;;;10.90;61.80;;;;;;6181906;23;20209;-90
2022/10/05 00:20:48;;;;;;;2.88;2.67;;;11.00;56.50;;;;;;6181532;23;20888;-89
2022/10/05 00:23:30;;;;;;;4.00;2.80;;;11.00;56.80;;;;;;6206084;23;20660;-89
2022/10/05 00:26:05;;;;;;;3.17;2.90;;;11.00;61.90;;;;;;6206055;23;20158;-88
2022/10/05 00:28:31;;;;;;;3.20;2.83;;;10.90;75.80;;;;;;6207449;23;20149;-88
2022/10/05 00:30:57;;;;;;;4.45;3.30;;;10.90;84.70;;;;;;6206091;23;20162;-88
2022/10/05 00:33:23;;;;;;;3.28;2.97;;;10.90;78.70;;;;;;6205389;23;20189;-88
2022/10/05 00:35:49;;;;;;;3.72;2.83;;;11.00;92.10;;;;;;6205661;23;20406;-88
2022/10/05 00:38:17;;;;;;;3.35;2.83;;;10.80;90.90;;;;;;6206552;23;20245;-88
2022/10/05 00:41:06;;;;;;;4.25;2.80;;;10.70;98.90;;;;;;6180703;23;20745;-88
2022/10/05 00:43:52;;;;;;;3.47;2.65;;;10.70;99.90;;;;;;6205853;23;20186;-89
2022/10/05 00:46:26;;;;;;;5.00;2.97;;;10.70;99.90;;;;;;6205404;23;20232;-90
2022/10/05 00:49:16;;;;;;;3.27;2.73;;;10.60;99.90;;;;;;6181460;23;20154;-88
2022/10/05 00:51:57;;;;;;;5.47;3.60;;;10.60;99.90;;;;;;6205259;23;20139;-88
2022/10/05 00:54:46;;;;;;;3.97;3.10;;;10.50;99.90;;;;;;6205530;23;20173;-87
2022/10/05 00:57:31;;;;;;;3.93;3.20;;;10.40;99.90;;;;;;6205451;23;20181;-88
2022/10/05 01:00:11;;;;;;;3.27;2.97;;;10.50;99.90;;;;;;6205054;23;20146;-89
2022/10/05 01:02:49;;;;;;;4.83;3.40;;;10.40;99.90;;;;;;6205218;23;20178;-89
2022/10/05 01:05:25;;;;;;;4.33;3.30;;;10.50;99.90;;;;;;6203921;23;20216;-88
2022/10/05 01:07:59;;;;;;;5.25;3.40;;;10.50;99.90;;;;;;6202839;23;20192;-89
2022/10/05 01:10:49;;;;;;;4.87;3.40;;;10.50;99.90;;;;;;6203550;23;20462;-89
2022/10/05 01:14:09;;;;;;;3.63;3.03;;;10.50;99.90;;;;;;6203910;23;20205;-88
2022/10/05 01:16:40;;;;;;;4.77;3.70;;;10.40;99.90;;;;;;6085401;23;20216;-88
2022/10/05 01:19:28;;;;;;;5.37;3.50;;;10.50;99.90;;;;;;6184199;23;20166;-88
2022/10/05 01:22:09;;;;;;;5.40;3.47;;;10.50;99.90;;;;;;6204847;23;20216;-88
2022/10/05 01:24:49;;;;;;;4.67;3.60;;;10.50;99.90;;;;;;6210354;23;20158;-89
2022/10/05 01:27:33;;;;;;;3.50;3.20;;;10.60;99.90;;;;;;6204318;23;20188;-88
2022/10/05 01:30:15;;;;;;;3.33;3.00;;;10.60;99.90;;;;;;6182556;23;20154;-88
2022/10/05 01:32:55;;;;;;;6.33;2.97;;;10.50;99.90;;;;;;6204171;23;20790;-89
2022/10/05 01:35:43;;;;;;;5.47;3.50;;;10.50;99.90;;;;;;6204331;23;20154;-87
2022/10/05 01:38:09;;;;;;;4.43;3.63;;;10.50;99.90;;;;;;6204386;23;20162;-89
2022/10/05 01:41:01;;;;;;;4.60;3.50;;;10.70;99.90;;;;;;6204710;23;20173;-89
2022/10/05 01:43:37;;;;;;;3.60;3.30;;;10.50;99.90;;;;;;6209902;23;20685;-88
2022/10/05 01:46:18;;;;;;;3.60;3.20;;;10.40;99.90;;;;;;6204049;23;20803;-88
2022/10/05 01:49:22;;;;;;;4.03;3.30;;;10.50;99.90;;;;;;6204564;23;20150;-88
2022/10/05 01:51:57;;;;;;;4.97;3.20;;;10.40;99.90;;;;;;6149210;23;20282;-88
2022/10/05 01:54:31;;;;;;;4.63;3.67;;;10.40;99.90;;;;;;6203977;23;20169;-88
2022/10/05 01:57:15;;;;;;;4.67;3.50;;;10.30;99.90;;;;;;6179178;23;20173;-88
2022/10/05 01:59:59;;;;;;;4.03;3.63;;;10.30;99.90;;;;;;6179373;23;20198;-88
2022/10/05 02:02:27;;;;;;;3.93;3.33;;;10.40;99.90;;;;;;6179102;23;20244;-88
2022/10/05 02:05:05;;;;;;;5.67;4.00;;;10.40;99.90;;;;;;6178655;23;20162;-88
2022/10/05 02:07:40;;;;;;;4.70;3.63;;;10.30;99.90;;;;;;6205981;23;20166;-88
2022/10/05 02:10:24;;;;;;;4.57;3.50;;;10.40;99.90;;;;;;6179348;23;20174;-88
2022/10/05 02:12:59;;;;;;;5.13;3.57;;;10.40;99.90;;;;;;6178940;23;20201;-90
2022/10/05 02:15:37;;;;;;;4.60;3.80;;;10.30;99.90;;;;;;6179189;23;20158;-88
2022/10/05 02:18:09;;;;;;;6.40;3.40;;;10.40;99.90;;;;;;6178836;23;20155;-89
2022/10/05 02:20:38;;;;;;;3.93;3.23;;;10.50;99.90;;;;;;6179071;23;20153;-88
2022/10/05 02:23:09;;;;;;;6.63;3.50;;;10.40;99.90;;;;;;6154298;23;20189;-89
2022/10/05 02:25:41;;;;;;;5.43;3.50;;;10.40;99.90;;;;;;6179079;23;20533;-88
2022/10/05 02:28:36;;;;;;;4.03;3.47;;;10.40;99.90;;;;;;6181460;23;20194;-88
2022/10/05 02:31:12;;;;;;;5.23;3.40;;;10.40;99.90;;;;;;6172421;23;20161;-88
2022/10/05 02:33:37;;;;;;;5.13;3.30;;;10.40;99.90;;;;;;6182400;23;20174;-88
2022/10/05 02:36:31;;;;;;;5.20;3.77;;;10.50;99.90;;;;;;6182336;23;20169;-88
2022/10/05 02:39:24;;;;;;;4.90;3.37;;;10.50;99.90;;;;;;6157946;23;20200;-88
2022/10/05 02:42:03;;;;;;;4.00;3.60;;;10.50;99.90;;;;;;6158754;23;20186;-88
2022/10/05 02:44:36;;;;;;;5.00;3.57;;;10.50;99.90;;;;;;6182485;23;20150;-88
2022/10/05 02:47:36;;;;;;;3.73;3.33;;;10.50;99.90;;;;;;6158371;23;20174;-88
2022/10/05 02:50:04;;;;;;;4.17;3.70;;;10.60;99.90;;;;;;6182196;23;20196;-89
2022/10/05 02:53:11;;;;;;;5.37;3.40;;;10.70;99.90;;;;;;6182002;23;20178;-88
2022/10/05 02:55:56;;;;;;;4.40;3.60;;;10.70;99.90;;;;;;6122153;23;20174;-88
2022/10/05 02:58:27;;;;;;;5.40;3.60;;;10.80;99.90;;;;;;6180809;23;20169;-88
2022/10/05 03:01:20;;;;;;;5.20;3.10;;;10.80;99.90;;;;;;6158172;23;20680;-88
2022/10/05 03:04:21;;;;;;;5.37;3.67;;;10.90;99.90;;;;;;6158022;23;20665;-88
2022/10/05 03:07:06;;;;;;;4.10;3.70;;;10.90;99.90;;;;;;6172799;23;21005;-88
2022/10/05 03:09:38;;;;;;;3.97;3.57;;;10.90;99.90;;;;;;6182243;23;20150;-88
2022/10/05 03:12:28;;;;;;;4.75;3.75;;;11.00;99.90;;;;;;6182081;23;20714;-88
2022/10/05 03:15:33;;;;;;;4.15;3.75;;;10.90;99.90;;;;;;6181918;23;21001;-88
2022/10/05 03:18:20;;;;;;;6.82;3.65;;;11.00;99.90;;;;;;6182348;23;20216;-90
2022/10/05 03:21:12;;;;;;;3.92;3.50;;;10.90;99.90;;;;;;6182218;23;20161;-89
2022/10/05 03:24:09;;;;;;;4.20;3.80;;;10.90;99.90;;;;;;6182025;23;20186;-88
2022/10/05 03:26:59;;;;;;;3.90;3.60;;;10.90;99.90;;;;;;6181937;23;20178;-88
2022/10/05 03:29:40;;;;;;;4.05;3.50;;;10.90;99.90;;;;;;6182139;23;20248;-88
2022/10/05 03:32:54;;;;;;;4.22;3.75;;;10.80;99.90;;;;;;6181246;23;20240;-88
2022/10/05 03:35:39;;;;;;;4.22;3.22;;;10.70;99.90;;;;;;6156875;23;20162;-89
2022/10/05 03:38:30;;;;;;;3.70;3.40;;;10.70;99.90;;;;;;6187064;23;20157;-88
2022/10/05 03:41:16;;;;;;;4.45;3.88;;;10.80;99.90;;;;;;6210811;23;20143;-88
2022/10/05 03:44:00;;;;;;;4.28;3.65;;;10.70;99.90;;;;;;6183839;23;20536;-88
2022/10/05 03:50:22;;;;;;;5.20;3.60;;;10.70;99.90;;;;;;6210374;23;20169;-88
2022/10/05 03:52:54;;;;;;;4.25;3.47;;;10.70;99.90;;;;;;6183758;23;20174;-89
2022/10/05 03:55:45;;;;;;;4.68;3.40;;;10.70;99.90;;;;;;6194262;23;20197;-88
2022/10/05 03:58:19;;;;;;;4.35;3.95;;;10.60;99.90;;;;;;6208507;23;20151;-88
2022/10/05 04:00:51;;;;;;;4.00;3.70;;;10.50;99.90;;;;;;6208711;23;20150;-88
2022/10/05 04:03:28;;;;;;;4.30;3.70;;;10.50;99.90;;;;;;6209175;23;20190;-87
2022/10/05 04:06:03;;;;;;;4.90;3.90;;;10.50;99.90;;;;;;6210267;23;20153;-88
2022/10/05 04:08:38;;;;;;;4.63;4.13;;;10.40;99.90;;;;;;6208811;23;20204;-89
2022/10/05 04:11:10;;;;;;;8.60;4.00;;;10.30;99.90;;;;;;6183826;23;20163;-88
2022/10/05 04:13:50;;;;;;;5.30;4.43;;;10.20;99.90;;;;;;6209031;23;20178;-88
2022/10/05 04:16:29;;;;;;;4.63;4.13;;;10.40;99.90;;;;;;6209616;23;20157;-88
2022/10/05 04:19:01;;;;;;;4.47;4.03;;;10.40;99.90;;;;;;6209129;23;20463;-88
2022/10/05 04:21:46;;;;;;;4.87;4.20;;;10.40;99.90;;;;;;6208988;23;20924;-88
2022/10/05 04:24:28;;;;;;;4.97;4.37;;;10.30;99.90;;;;;;6208888;23;20281;-88
2022/10/05 04:27:18;;;;;;;4.80;4.30;;;10.30;1.00;;;;;;6208384;23;20174;-88
2022/10/05 04:29:56;;;;;;;6.70;5.00;;;10.40;1.00;;;;;;6208749;23;20253;-88
2022/10/05 04:32:32;;;;;;;7.03;5.07;;;10.30;1.00;;;;;;6208863;23;20173;-88
2022/10/05 04:35:00;;;;;;;5.13;4.30;;;10.40;1.00;;;;;;6208507;23;20158;-87
2022/10/05 04:37:39;;;;;;;5.33;4.30;;;10.40;1.00;;;;;;6208824;23;20166;-88
2022/10/05 04:40:44;;;;;;;4.83;4.30;;;10.40;1.00;;;;;;6208837;23;20157;-88
2022/10/05 04:43:22;;;;;;;6.07;4.60;;;10.40;1.00;;;;;;6206216;23;20261;-88
2022/10/05 04:46:06;;;;;;;5.43;4.57;;;10.30;1.00;;;;;;6209043;23;20162;-89
2022/10/05 04:48:44;;;;;;;6.50;4.50;;;10.40;1.00;;;;;;6209067;23;20227;-89
2022/10/05 04:51:16;;;;;;;5.27;4.40;;;10.30;1.00;;;;;;6209467;23;20143;-88
2022/10/05 04:53:47;;;;;;;5.50;4.10;;;10.30;1.00;;;;;;6209229;23;20202;-87
2022/10/05 04:56:46;;;;;;;6.13;4.77;;;10.40;1.00;;;;;;6209405;23;20208;-87
2022/10/05 04:59:28;;;;;;;6.80;4.73;;;10.30;1.00;;;;;;6211926;23;20482;-88
2022/10/05 05:02:30;;;;;;;4.87;4.37;;;10.30;1.00;;;;;;6209714;23;20213;-88
2022/10/05 05:05:41;;;;;;;4.93;4.47;;;10.30;1.00;;;;;;6210045;23;20272;-88
2022/10/05 05:08:50;;;;;;;6.30;4.90;;;10.30;1.00;;;;;;6143643;23;20216;-88
2022/10/05 05:11:56;;;;;;;6.00;4.47;;;10.30;1.00;;;;;;6210347;23;20161;-89
2022/10/05 05:14:50;;;;;;;9.07;5.30;;;10.30;1.00;;;;;;6159273;23;20169;-88
2022/10/05 05:17:31;;;;;;;5.83;4.70;;;10.20;1.00;;;;;;6210402;23;20147;-88
2022/10/05 05:20:29;;;;;;;5.33;4.53;;;10.20;1.00;;;;;;6211791;23;20154;-87
2022/10/05 05:23:14;;;;;;;6.27;4.97;;;10.10;1.00;;;;;;6212603;23;20185;-88
2022/10/05 05:25:56;;;;;;;5.37;4.87;;;10.10;1.00;;;;;;6212084;23;20146;-88
2022/10/05 05:28:48;;;;;;;5.97;5.03;;;10.10;1.00;;;;;;6213180;23;20193;-88
2022/10/05 05:31:37;;;;;;;6.60;5.30;;;10.20;1.00;;;;;;6211300;23;20155;-88
2022/10/05 05:34:18;;;;;;;6.57;5.37;;;10.10;1.00;;;;;;6210878;23;20599;-87
2022/10/05 05:37:00;;;;;;;5.87;5.00;;;10.30;1.00;;;;;;6234555;23;20166;-89
2022/10/05 05:39:52;;;;;;;5.83;4.90;;;10.20;1.00;;;;;;6238781;23;20150;-89
2022/10/05 05:42:57;;;;;;;7.77;5.77;;;10.30;1.00;;;;;;6238197;22;20162;-88
2022/10/05 05:45:36;;;;;;;10.10;6.10;;;10.30;1.00;;;;;;6238296;23;20153;-89
2022/10/05 05:48:12;;;;;;;8.63;5.63;;;10.40;1.00;;;;;;6238263;23;20186;-89
2022/10/05 05:50:47;;;;;;;6.10;4.80;;;10.50;1.00;;;;;;6214637;23;20134;-89
2022/10/05 05:53:43;;;;;;;5.35;4.85;;;10.50;1.00;;;;;;6236683;22;20177;-88
2022/10/05 05:56:11;;;;;;;5.87;5.20;;;10.50;99.90;;;;;;6236853;23;20432;-90
2022/10/05 05:58:41;;;;;;;8.67;5.83;;;10.50;99.90;;;;;;6210430;22;20139;-89
2022/10/05 06:01:12;;;;;;;6.87;5.20;;;10.60;99.90;;;;;;6210870;23;20165;-89
2022/10/05 06:03:45;;;;;;;6.88;5.22;;;10.60;99.90;;;;;;6193052;23;20186;-89
2022/10/05 06:06:16;;;;;;;5.63;5.03;;;10.70;99.90;;;;;;6184793;23;20155;-88
2022/10/05 06:08:44;;;;;;;10.98;6.07;;;10.80;99.90;;;;;;6211339;23;20599;-89
2022/10/05 06:11:26;;;;;;;7.63;5.53;;;10.70;99.90;;;;;;6184345;23;20722;-88
2022/10/05 06:13:53;;;;;;;7.75;5.53;;;10.70;99.90;;;;;;6159195;23;20721;-88
2022/10/05 06:16:40;;;;;;;7.03;5.30;;;10.70;99.90;;;;;;6182118;23;20166;-88
2022/10/05 06:19:16;;;;;;;6.80;5.63;;;10.80;99.90;;;;;;6181186;23;20146;-89
2022/10/05 06:22:21;;;;;;;5.05;4.60;;;10.90;99.90;;;;;;6179368;23;20244;-88
2022/10/05 06:24:49;;;;;;;5.70;4.95;;;11.00;99.90;;;;;;6179461;23;20651;-88
2022/10/05 06:27:42;;;;;;;6.35;5.30;;;11.10;99.90;;;;;;6179120;23;20186;-88
2022/10/05 06:30:15;;;;;;;6.00;4.85;;;11.10;99.90;;;;;;6206426;23;20214;-88
2022/10/05 06:33:00;;;;;;;5.85;5.35;;;11.20;99.90;;;;;;6178218;23;20189;-88
2022/10/05 06:35:43;;;;;;;7.35;5.15;;;11.20;99.90;;;;;;6179356;23;20154;-88
2022/10/05 06:38:21;;;;;;;6.50;4.80;;;11.40;99.90;;;;;;6179209;23;20192;-88
2022/10/05 06:40:53;;;;;;;7.30;5.97;;;11.50;99.90;;;;;;6179152;23;20249;-89
2022/10/05 06:43:32;;;;;;;8.75;6.07;;;11.60;99.90;;;;;;6178662;23;20178;-87
2022/10/05 06:46:44;;;;;;;5.90;4.82;;;11.80;99.90;;;;;;6205607;23;20142;-88
2022/10/05 06:49:19;;;;;;;6.57;5.55;;;11.80;99.90;;;;;;6153202;23;20161;-87
2022/10/05 06:51:49;;;;;;;4.80;4.30;;;11.90;99.90;;;;;;6153860;23;20485;-88
2022/10/05 06:54:38;;;;;;;6.13;5.53;;;11.90;99.90;;;;;;6178699;23;20166;-88
2022/10/05 06:57:15;;;;;;;5.80;5.20;;;12.00;99.90;;;;;;6178619;23;20632;-87
2022/10/05 07:00:01;;;;;;;5.30;4.85;;;12.10;99.90;;;;;;6178871;23;20161;-88
2022/10/05 07:02:29;;;;;;;5.93;5.20;;;12.30;82.50;;;;;;6178315;23;20264;-88
2022/10/05 07:05:17;;;;;;;6.05;5.18;;;12.40;81.70;;;;;;6178304;23;20166;-88
2022/10/05 07:08:08;;;;;;;9.38;6.20;;;12.70;68.00;;;;;;6179259;23;20185;-88
2022/10/05 07:10:58;;;;;;;6.07;5.28;;;12.90;46.80;;;;;;6158000;23;20499;-88
2022/10/05 07:13:37;;;;;;;5.53;5.03;;;13.10;27.20;;;;;;6205674;23;20645;-88
2022/10/05 07:16:06;;;;;;;6.85;5.60;;;13.30;15.80;;;;;;6178786;23;20150;-87
2022/10/05 07:18:40;;;;;;;7.15;4.88;;;13.30;1.00;;;;;;6205321;23;20154;-88
2022/10/05 07:21:38;;;;;;;7.40;5.10;;;13.40;1.00;;;;;;6178601;23;20184;-88
2022/10/05 07:24:15;;;;;;;5.28;4.53;;;13.60;1.00;;;;;;6167267;23;20164;-88
2022/10/05 07:26:59;;;;;;;5.93;4.70;;;13.60;1.00;;;;;;6178362;23;20695;-88
2022/10/05 07:29:36;;;;;;;8.07;5.82;;;13.60;1.00;;;;;;6178130;23;20147;-88
2022/10/05 07:32:19;;;;;;;6.05;5.45;;;13.50;1.00;;;;;;6178790;23;20182;-88
2022/10/05 07:35:03;;;;;;;13.35;8.57;;;13.40;1.00;;;;;;6153167;23;20245;-88
2022/10/05 07:37:53;;;;;;;12.90;8.48;;;13.40;1.00;;;;;;6178601;23;20166;-87
2022/10/05 07:40:31;;;;;;;12.88;8.50;;;13.30;1.00;;;;;;6178386;23;20151;-88
2022/10/05 07:43:13;;;;;;;11.32;8.68;;;13.40;1.00;;;;;;6153555;23;20182;-88
2022/10/05 07:45:44;;;;;;;14.13;9.13;;;13.50;1.00;;;;;;6178066;23;20150;-88
2022/10/05 07:48:16;;;;;;;12.85;7.78;;;13.50;1.00;;;;;;6204770;23;20485;-88
2022/10/05 07:51:10;;;;;;;10.43;7.90;;;13.70;1.00;;;;;;6178466;23;20162;-88
2022/10/05 07:53:39;;;;;;;9.43;6.57;;;13.80;1.00;;;;;;6178299;23;20179;-88
2022/10/05 07:56:23;;;;;;;21.77;13.65;;;14.00;1.00;;;;;;6197708;23;20178;-88
2022/10/05 07:59:00;;;;;;;14.32;9.25;;;14.20;1.00;;;;;;6177876;23;20558;-87
2022/10/05 08:01:34;;;;;;;12.65;8.23;;;14.40;1.00;;;;;;6204808;23;20154;-88
2022/10/05 08:04:38;;;;;;;8.32;6.10;;;14.70;1.00;;;;;;6179028;23;20676;-88
2022/10/05 08:07:13;;;;;;;12.02;7.90;;;14.70;1.00;;;;;;6157680;23;20691;-88
2022/10/05 08:09:52;;;;;;;8.68;6.45;;;14.90;1.00;;;;;;6203617;23;20177;-88
2022/10/05 08:12:32;;;;;;;9.38;7.13;;;14.90;1.00;;;;;;6180097;23;20182;-88
2022/10/05 08:15:14;;;;;;;9.30;6.72;;;15.10;1.00;;;;;;6203328;23;20150;-87
2022/10/05 08:17:55;;;;;;;8.00;6.32;;;15.00;1.00;;;;;;6203634;23;20150;-87
2022/10/05 08:20:36;;;;;;;7.50;5.35;;;15.10;1.00;;;;;;6203606;23;20154;-88
2022/10/05 08:23:27;;;;;;;7.30;5.15;;;15.10;1.00;;;;;;6203622;23;20661;-87
2022/10/05 08:26:06;;;;;;;6.38;5.30;;;15.10;1.00;;;;;;6189473;23;20284;-87
2022/10/05 08:28:50;;;;;;;5.30;4.80;;;15.10;1.00;;;;;;6204899;23;20181;-88
2022/10/05 08:31:22;;;;;;;5.70;5.20;;;15.10;1.00;;;;;;6205194;23;20168;-89
2022/10/05 08:34:18;;;;;;;5.82;4.07;;;15.30;1.00;;;;;;6204501;23;20202;-89
2022/10/05 08:36:52;;;;;;;5.47;4.40;;;15.30;1.00;;;;;;6186512;23;20208;-89
2022/10/05 08:39:20;;;;;;;5.03;4.40;;;15.10;1.00;;;;;;6204967;23;20177;-88
2022/10/05 08:42:10;;;;;;;5.05;4.20;;;15.20;1.00;;;;;;6179871;23;20167;-88
2022/10/05 08:44:55;;;;;;;4.97;4.20;;;15.20;1.00;;;;;;6204672;23;20153;-87
2022/10/05 08:47:49;;;;;;;4.65;3.92;;;15.20;1.00;;;;;;6204575;23;20189;-88
2022/10/05 08:50:30;;;;;;;4.70;3.90;;;15.20;1.00;;;;;;6148602;23;20158;-88
2022/10/05 08:53:41;;;;;;;5.88;3.90;;;15.30;1.00;;;;;;6206323;23;20571;-87
2022/10/05 08:56:13;;;;;;;6.30;3.97;;;15.40;1.00;;;;;;6176037;23;20162;-87
2022/10/05 08:59:14;;;;;;;5.55;4.00;;;15.50;1.00;;;;;;6213571;23;20208;-88
2022/10/05 09:02:18;;;;;;;4.03;3.72;;;15.50;1.00;;;;;;6213067;23;20240;-87
2022/10/05 09:05:07;;;;;;;5.40;4.07;;;15.30;1.00;;;;;;6213743;23;20233;-88
2022/10/05 09:07:43;;;;;;;6.70;4.10;;;15.20;1.00;;;;;;6213935;23;20574;-88
2022/10/05 09:10:35;;;;;;;4.82;3.85;;;15.00;1.00;;;;;;6214279;23;20486;-89
2022/10/05 09:13:33;;;;;;;5.07;4.25;;;15.00;1.00;;;;;;6213644;23;20178;-88
2022/10/05 09:15:59;;;;;;;4.88;4.47;;;15.10;1.00;;;;;;6192732;23;20200;-88
2022/10/05 09:18:46;;;;;;;5.13;4.13;;;15.20;1.00;;;;;;6213135;23;20237;-88
2022/10/05 09:21:42;;;;;;;4.40;4.00;;;15.10;1.00;;;;;;6213810;23;20143;-88
2022/10/05 09:24:14;;;;;;;5.63;4.53;;;15.10;1.00;;;;;;6213660;23;20595;-88
2022/10/05 09:26:39;;;;;;;5.07;4.05;;;15.20;1.00;;;;;;6213591;23;20206;-88
2022/10/05 09:29:32;;;;;;;5.10;4.22;;;15.10;1.00;;;;;;6209073;23;20177;-89
2022/10/05 09:32:26;;;;;;;7.75;4.68;;;15.10;1.00;;;;;;6204677;23;20619;-87
2022/10/05 09:35:04;;;;;;;5.85;4.15;;;15.20;1.00;;;;;;6205009;23;20233;-87
2022/10/05 09:37:59;;;;;;;4.90;4.15;;;15.30;1.00;;;;;;6206604;23;20142;-86
2022/10/05 09:40:46;;;;;;;5.43;3.90;;;15.40;1.00;;;;;;6143783;23;20610;-86
2022/10/05 09:43:37;;;;;;;5.60;4.20;;;15.40;1.00;;;;;;6204175;23;20200;-87
2022/10/05 09:46:53;;;;;;;5.13;4.45;;;15.50;1.00;;;;;;6207671;23;20401;-86
2022/10/05 09:49:52;;;;;;;6.28;4.10;;;15.50;1.00;;;;;;6160769;23;20194;-88
2022/10/05 09:52:43;;;;;;;5.00;4.55;;;15.60;1.00;;;;;;6213458;23;20611;-88
2022/10/05 09:55:53;;;;;;;5.85;4.20;;;15.60;1.00;;;;;;6213730;23;20174;-87
2022/10/05 09:58:29;;;;;;;6.75;4.60;;;15.50;1.00;;;;;;6213360;23;20606;-88
2022/10/05 10:01:40;;;;;;;6.65;4.78;;;15.50;1.00;;;;;;6213445;23;20161;-87
2022/10/05 10:04:14;;;;;;;5.93;5.00;;;15.50;1.00;;;;;;6208961;23;20169;-88
2022/10/05 10:07:19;;;;;;;6.55;5.15;;;15.50;1.00;;;;;;6216572;23;20208;-87
2022/10/05 10:10:04;;;;;;;6.22;5.07;;;15.70;1.00;;;;;;6215497;23;20196;-87
2022/10/05 10:12:32;;;;;;;11.50;6.95;;;15.80;1.00;;;;;;6210881;23;20181;-88
2022/10/05 10:18:35;;;;;;;6.85;5.28;;;16.10;1.00;;;;;;6214598;23;20672;-88
2022/10/05 10:21:15;;;;;;;5.50;5.00;;;16.10;1.00;;;;;;6212601;23;20499;-88
2022/10/05 10:23:58;;;;;;;5.57;5.07;;;16.10;1.00;;;;;;6212269;23;20721;-89
2022/10/05 10:26:57;;;;;;;5.97;5.25;;;16.20;1.00;;;;;;6211744;23;20154;-87
2022/10/05 10:29:44;;;;;;;6.03;5.40;;;16.20;1.00;;;;;;6212791;23;20497;-88
2022/10/05 10:32:48;;;;;;;6.07;5.47;;;16.20;1.00;;;;;;6213033;23;20182;-88
2022/10/05 10:35:35;;;;;;;5.88;5.30;;;16.10;1.00;;;;;;6212672;23;20605;-89
2022/10/05 10:38:25;;;;;;;5.60;5.10;;;16.20;1.00;;;;;;6209935;23;20240;-88
2022/10/05 10:41:03;;;;;;;6.40;5.43;;;16.40;1.00;;;;;;6212244;23;20155;-88
2022/10/05 10:43:39;;;;;;;5.45;4.90;;;16.30;1.00;;;;;;6212595;23;20173;-87
2022/10/05 10:46:11;;;;;;;5.68;4.93;;;16.30;1.00;;;;;;6211463;23;20157;-88
2022/10/05 10:48:48;;;;;;;4.70;4.30;;;16.40;1.00;;;;;;6211611;23;20168;-89
2022/10/05 10:51:31;;;;;;;5.57;4.68;;;16.40;1.00;;;;;;6211923;23;20497;-88
2022/10/05 10:54:32;;;;;;;6.13;5.53;;;16.40;1.00;;;;;;6212541;23;20466;-88
2022/10/05 10:57:09;;;;;;;7.53;6.72;;;16.30;1.00;;;;;;6107026;23;20176;-88
2022/10/05 10:59:46;;;;;;;7.97;7.10;;;16.30;1.00;;;;;;6212213;23;20154;-89
2022/10/05 11:02:26;;;;;;;6.47;5.75;;;16.10;1.00;;;;;;6210647;23;20185;-87
2022/10/05 11:05:03;;;;;;;8.10;6.38;;;16.10;1.00;;;;;;6211201;23;20138;-88
2022/10/05 11:08:06;;;;;;;12.15;8.25;;;16.10;1.00;;;;;;6211085;23;20633;-88
2022/10/05 11:10:46;;;;;;;11.23;6.70;;;16.20;1.00;;;;;;6210770;23;20154;-86
2022/10/05 11:13:38;;;;;;;14.93;8.13;;;16.20;1.00;;;;;;6211245;23;20174;-86
2022/10/05 11:16:25;;;;;;;13.07;6.38;;;16.20;1.00;;;;;;6211786;23;20304;-87
2022/10/05 11:19:08;;;;;;;7.97;6.38;;;16.10;1.00;;;;;;6207475;23;20161;-86
2022/10/05 11:21:51;;;;;;;11.02;7.03;;;16.20;1.00;;;;;;6206781;23;20158;-87
2022/10/05 11:24:53;;;;;;;8.27;5.03;;;16.30;1.00;;;;;;6210476;23;20233;-86
2022/10/05 11:27:59;;;;;;;9.30;5.60;;;16.20;1.00;;;;;;6212776;23;20194;-86
2022/10/05 11:30:43;;;;;;;4.93;4.10;;;16.20;1.00;;;;;;6213452;23;20570;-86
2022/10/05 11:33:48;;;;;;;6.93;5.32;;;16.00;1.00;;;;;;6211183;23;20205;-86
2022/10/05 11:36:38;;;;;;;8.93;5.53;;;16.00;1.00;;;;;;6208215;23;20147;-87
2022/10/05 11:39:35;;;;;;;6.20;3.72;;;16.00;1.00;;;;;;6205994;23;20248;-86
2022/10/05 11:42:20;;;;;;;14.23;7.93;;;15.90;1.00;;;;;;6193581;23;20178;-87
2022/10/05 11:45:28;;;;;;;7.07;5.55;;;15.90;1.00;;;;;;6208721;23;20289;-89
2022/10/05 11:48:06;;;;;;;5.05;4.28;;;15.90;1.00;;;;;;6189027;23;20268;-89
2022/10/05 11:50:56;;;;;;;9.68;4.90;;;16.00;1.00;;;;;;6209241;23;20511;-90
2022/10/05 11:53:35;;;;;;;4.75;3.85;;;16.10;1.00;;;;;;6209054;23;20217;-89
2022/10/05 11:56:22;;;;;;;9.02;6.20;;;15.90;1.00;;;;;;6206225;23;20182;-90
2022/10/05 11:58:58;;;;;;;7.05;5.13;;;15.90;1.00;;;;;;6210161;23;20139;-88
2022/10/05 12:01:42;;;;;;;8.13;6.90;;;15.90;1.00;;;;;;6210961;23;20221;-88
2022/10/05 12:04:56;;;;;;;5.57;5.03;;;15.90;1.00;;;;;;6209201;23;20234;-88
2022/10/05 12:08:06;;;;;;;4.45;3.53;;;16.00;1.00;;;;;;6089670;23;20177;-89
2022/10/05 12:10:34;;;;;;;3.97;3.58;;;16.00;1.00;;;;;;6059895;23;20161;-89
2022/10/05 12:13:07;;;;;;;4.38;3.88;;;16.10;1.00;;;;;;6182765;23;20522;-89
2022/10/05 12:15:41;;;;;;;4.85;3.95;;;16.00;1.00;;;;;;6209101;23;20503;-88
2022/10/05 12:18:21;;;;;;;5.55;3.85;;;16.10;1.00;;;;;;6211305;23;20146;-88
2022/10/05 12:20:50;;;;;;;4.00;3.53;;;16.10;1.00;;;;;;6206892;23;20166;-88
2022/10/05 12:23:32;;;;;;;7.55;4.20;;;16.10;1.00;;;;;;6207153;23;20626;-89
2022/10/05 12:25:58;;;;;;;4.78;3.80;;;16.30;1.00;;;;;;6208775;23;20522;-90
2022/10/05 12:28:33;;;;;;;6.18;3.85;;;16.30;1.00;;;;;;6206232;23;20179;-88
2022/10/05 12:31:08;;;;;;;5.13;4.00;;;16.20;1.00;;;;;;6207099;23;20227;-88
2022/10/05 12:33:44;;;;;;;11.73;3.80;;;16.30;1.00;;;;;;6207642;23;20173;-90
2022/10/05 12:36:16;;;;;;;3.67;3.38;;;16.30;1.00;;;;;;6205701;23;20146;-86
2022/10/05 12:38:49;;;;;;;5.68;3.25;;;16.40;1.00;;;;;;6206518;23;20146;-85
2022/10/05 12:41:27;;;;;;;3.33;3.03;;;16.60;1.00;;;;;;6207555;23;20150;-86
2022/10/05 12:44:01;;;;;;;4.70;2.80;;;16.90;1.00;;;;;;6206955;23;20634;-85
2022/10/05 12:46:54;;;;;;;3.78;3.17;;;17.00;1.00;;;;;;6206975;23;20511;-88
2022/10/05 12:49:40;;;;;;;3.47;3.08;;;17.20;1.00;;;;;;6207041;23;20485;-85
2022/10/05 12:52:23;;;;;;;3.75;3.03;;;17.20;1.00;;;;;;6206986;23;20178;-85
2022/10/05 12:55:03;;;;;;;4.22;3.40;;;17.10;1.00;;;;;;6208581;23;20139;-85
2022/10/05 12:57:44;;;;;;;5.43;3.22;;;17.10;1.00;;;;;;6209357;23;20166;-85
2022/10/05 13:00:18;;;;;;;3.42;3.13;;;17.00;1.00;;;;;;6181678;23;20155;-86
2022/10/05 13:03:00;;;;;;;3.28;2.92;;;16.90;1.00;;;;;;6181463;23;20181;-86
2022/10/05 13:05:31;;;;;;;3.58;3.03;;;16.90;1.00;;;;;;6208829;23;20154;-85
2022/10/05 13:08:25;;;;;;;5.18;3.45;;;16.90;1.00;;;;;;6183134;23;20182;-86
2022/10/05 13:11:27;;;;;;;3.45;3.13;;;16.80;1.00;;;;;;6183169;23;20207;-86
2022/10/05 13:14:17;;;;;;;4.50;3.30;;;16.70;1.00;;;;;;6145987;23;20188;-85
2022/10/05 13:16:58;;;;;;;3.85;3.33;;;16.70;1.00;;;;;;6210196;23;20154;-84
2022/10/05 13:19:27;;;;;;;5.80;3.67;;;16.60;1.00;;;;;;6183580;23;20232;-86
2022/10/05 13:22:03;;;;;;;4.13;3.42;;;16.50;1.00;;;;;;6183842;23;20182;-88
2022/10/05 13:24:37;;;;;;;5.22;3.00;;;16.50;1.00;;;;;;6209308;23;20190;-87
2022/10/05 13:27:23;;;;;;;4.32;3.28;;;16.50;1.00;;;;;;6181965;23;20174;-87
2022/10/05 13:29:57;;;;;;;3.38;2.70;;;16.60;1.00;;;;;;6181907;23;20166;-87
2022/10/05 13:32:35;;;;;;;3.78;2.83;;;16.60;1.00;;;;;;6208102;23;20178;-88
2022/10/05 13:35:22;;;;;;;3.80;3.30;;;16.60;1.00;;;;;;6208078;23;20142;-88
2022/10/05 13:37:58;;;;;;;2.92;2.65;;;16.60;1.00;;;;;;6179303;23;20162;-87
2022/10/05 13:40:34;;;;;;;3.70;3.30;;;16.60;1.00;;;;;;6180940;23;20161;-88
2022/10/05 13:43:13;;;;;;;2.75;2.30;;;16.60;1.00;;;;;;6179896;23;20994;-87
2022/10/05 13:45:55;;;;;;;2.70;2.45;;;16.50;1.00;;;;;;6207453;23;20628;-88
2022/10/05 13:48:47;;;;;;;2.72;2.53;;;16.60;1.00;;;;;;6179414;23;20277;-87
2022/10/05 13:51:26;;;;;;;3.83;2.75;;;16.70;1.00;;;;;;6179861;23;20166;-89
2022/10/05 13:53:58;;;;;;;2.80;2.47;;;16.80;1.00;;;;;;6179688;23;20217;-87
2022/10/05 13:56:35;;;;;;;2.70;2.50;;;16.90;1.00;;;;;;6195850;23;20166;-87
2022/10/05 13:59:15;;;;;;;4.07;2.65;;;17.00;1.00;;;;;;6205693;23;20157;-88
2022/10/05 14:01:48;;;;;;;2.60;2.40;;;16.90;1.00;;;;;;6206402;23;20147;-87
2022/10/05 14:04:17;;;;;;;2.70;2.50;;;16.90;1.00;;;;;;6204482;23;20152;-85
2022/10/05 14:06:43;;;;;;;3.05;2.30;;;16.90;1.00;;;;;;6206260;23;20654;-87
2022/10/05 14:09:32;;;;;;;2.70;2.50;;;17.00;1.00;;;;;;6205992;23;20154;-86
2022/10/05 14:12:10;;;;;;;2.40;2.20;;;17.00;1.00;;;;;;6205441;23;20174;-86
2022/10/05 14:14:56;;;;;;;2.58;2.38;;;17.00;1.00;;;;;;6206620;23;20150;-87
2022/10/05 14:17:39;;;;;;;2.58;2.35;;;16.90;1.00;;;;;;6205831;23;20158;-86
2022/10/05 14:20:22;;;;;;;3.17;2.40;;;17.00;1.00;;;;;;6205646;23;20174;-86